Time;durP1;ratioP1;P1;durP2;ratioP2;P2;SDS_P1;SDS_P2;PMS_P1;PMS_P2;Temp;Humidity;BMP_temperature;BMP_pressure;BME280_temperature;BME280_humidity;BME280_pressure;Samples;Min_cycle;Max_cycle;Signal;HPM_P1;HPM_P2
2022/10/03 00:00:06;;;;;;;;;;;;;;;13.94;79.62;96036.09;5047910;28;20118;-64
2022/10/03 00:02:31;;;;;;;;;;;;;;;14.39;78.56;96033.41;5049760;28;20065;-65
2022/10/03 00:05:09;;;;;;;;;;;;;;;13.61;79.40;96040.81;5049025;28;20018;-65
2022/10/03 00:07:34;;;;;;;;;;;;;;;13.50;80.30;96032.22;5050325;28;20372;-67
2022/10/03 00:10:12;;;;;;;;;;;;;;;13.40;80.87;96034.34;5048999;28;20108;-65
2022/10/03 00:12:46;;;;;;;;;;;;;;;13.34;80.00;96032.88;5055772;28;20024;-65
2022/10/03 00:15:12;;;;;;;;;;;;;;;13.44;79.51;96036.13;5030626;28;20048;-65
2022/10/03 00:17:45;;;;;;;;;;;;;;;13.34;79.36;96044.34;5049527;28;20420;-65
2022/10/03 00:20:10;;;;;;;;;;;;;;;13.61;79.11;96030.13;5049422;28;20024;-66
2022/10/03 00:22:51;;;;;;;;;;;;;;;13.63;78.56;96035.19;5048656;28;20017;-67
2022/10/03 00:25:27;;;;;;;;;;;;;;;13.46;77.96;96041.16;5053842;28;20116;-67
2022/10/03 00:28:04;;;;;;;;;;;;;;;13.71;77.50;96045.16;5050614;28;20501;-68
2022/10/03 00:30:40;;;;;;;;;;;;;;;13.87;76.78;96050.94;5047517;28;20044;-68
2022/10/03 00:33:14;;;;;;;;;;;;;;;13.61;77.69;96061.41;5048638;28;20219;-68
2022/10/03 00:35:40;;;;;;;;;;;;;;;13.77;77.61;96058.13;5050130;28;20009;-67
2022/10/03 00:38:11;;;;;;;;;;;;;;;13.52;77.94;96066.69;5061265;28;20017;-67
2022/10/03 00:40:48;;;;;;;;;;;;;;;13.46;77.50;96067.88;5068767;28;20079;-67
2022/10/03 00:43:16;;;;;;;;;;;;;;;13.44;77.70;96060.16;5048449;28;20020;-67
2022/10/03 00:46:18;;;;;;;;;;;;;;;13.00;78.75;96058.09;5048542;28;20512;-67
2022/10/03 00:48:44;;;;;;;;;;;;;;;12.92;78.90;96064.91;5025765;28;20413;-67
2022/10/03 00:51:24;;;;;;;;;;;;;;;12.91;79.24;96059.88;5052084;28;20012;-67
2022/10/03 00:54:08;;;;;;;;;;;;;;;12.88;80.07;96063.13;5051525;28;20013;-67
2022/10/03 00:56:44;;;;;;;;;;;;;;;12.90;78.97;96066.31;5049456;28;20009;-67
2022/10/03 00:59:18;;;;;;;;;;;;;;;13.00;77.79;96061.56;5048299;28;20013;-67
2022/10/03 01:01:45;;;;;;;;;;;;;;;12.78;78.53;96072.09;5059752;28;20611;-67
2022/10/03 01:04:20;;;;;;;;;;;;;;;12.78;79.46;96069.44;5050460;28;20501;-67
2022/10/03 01:07:04;;;;;;;;;;;;;;;12.79;78.54;96073.69;5048416;28;20068;-68
2022/10/03 01:09:30;;;;;;;;;;;;;;;12.83;79.03;96072.00;5047241;28;20105;-67
2022/10/03 01:12:21;;;;;;;;;;;;;;;12.65;80.11;96067.56;5048281;28;20065;-68
2022/10/03 01:14:57;;;;;;;;;;;;;;;12.78;80.03;96069.44;5048651;28;20043;-67
2022/10/03 01:17:34;;;;;;;;;;;;;;;12.95;79.69;96077.69;5048128;28;20025;-67
2022/10/03 01:20:02;;;;;;;;;;;;;;;12.75;79.89;96076.16;5046704;28;20025;-68
2022/10/03 01:22:41;;;;;;;;;;;;;;;12.78;79.66;96082.78;5048169;28;20024;-68
2022/10/03 01:25:19;;;;;;;;;;;;;;;12.86;79.19;96084.78;5059738;28;20016;-68
2022/10/03 01:30:50;;;;;;;;;;;;;;;12.24;81.09;96092.25;5051931;28;20024;-67
2022/10/03 01:33:26;;;;;;;;;;;;;;;12.31;80.65;96087.31;5057622;28;20014;-67
2022/10/03 01:36:02;;;;;;;;;;;;;;;12.31;80.75;96078.53;5051385;28;20013;-67
2022/10/03 01:38:45;;;;;;;;;;;;;;;12.22;81.75;96084.50;5051891;28;20025;-67
2022/10/03 01:41:22;;;;;;;;;;;;;;;12.23;81.24;96090.63;5050185;28;20014;-68
2022/10/03 01:44:01;;;;;;;;;;;;;;;12.33;81.04;96095.00;5051560;28;20017;-67
2022/10/03 01:46:46;;;;;;;;;;;;;;;12.36;81.10;96094.44;5051690;28;20087;-67
2022/10/03 01:49:26;;;;;;;;;;;;;;;12.62;79.73;96102.81;5052372;28;20075;-67
2022/10/03 01:52:09;;;;;;;;;;;;;;;12.50;80.47;96100.63;5050504;28;20024;-67
2022/10/03 01:54:53;;;;;;;;;;;;;;;12.57;78.89;96102.91;5059605;28;20441;-67
2022/10/03 01:57:18;;;;;;;;;;;;;;;12.17;80.30;96110.47;5069426;28;20070;-64
2022/10/03 02:00:05;;;;;;;;;;;;;;;11.75;82.82;96122.75;5072354;28;20408;-65
2022/10/03 02:02:37;;;;;;;;;;;;;;;11.86;81.75;96129.56;5051069;28;20423;-67
2022/10/03 02:05:08;;;;;;;;;;;;;;;11.95;81.25;96127.06;5051399;28;20063;-67
2022/10/03 02:07:40;;;;;;;;;;;;;;;12.13;80.35;96128.13;5059594;28;20017;-69
2022/10/03 02:10:18;;;;;;;;;;;;;;;12.15;80.56;96126.78;5051046;28;20056;-67
2022/10/03 02:13:04;;;;;;;;;;;;;;;12.05;80.52;96131.47;5051232;28;20040;-67
2022/10/03 02:15:48;;;;;;;;;;;;;;;12.03;80.85;96137.09;5049437;28;20504;-66
2022/10/03 02:18:47;;;;;;;;;;;;;;;12.08;79.75;96129.00;5057246;28;20013;-67
2022/10/03 02:21:25;;;;;;;;;;;;;;;11.99;80.82;96133.41;5060358;22;20029;-69
2022/10/03 02:24:11;;;;;;;;;;;;;;;12.36;79.62;96132.59;5050330;28;20028;-69
2022/10/03 02:26:36;;;;;;;;;;;;;;;12.53;78.29;96126.72;5009910;28;20493;-69
2022/10/03 02:29:07;;;;;;;;;;;;;;;12.62;77.95;96124.19;5052053;28;20064;-69
2022/10/03 02:31:46;;;;;;;;;;;;;;;12.53;77.82;96129.38;5047063;28;20367;-69
2022/10/03 02:34:29;;;;;;;;;;;;;;;12.35;78.86;96120.34;5060097;28;20010;-69
2022/10/03 02:37:24;;;;;;;;;;;;;;;12.36;79.36;96129.91;5067240;28;20116;-69
2022/10/03 02:39:55;;;;;;;;;;;;;;;12.26;79.44;96126.63;4979331;28;20018;-69
2022/10/03 02:42:33;;;;;;;;;;;;;;;12.29;78.17;96129.50;5047265;28;20026;-69
2022/10/03 02:45:12;;;;;;;;;;;;;;;12.12;78.06;96131.88;5050244;28;20116;-68
2022/10/03 02:47:56;;;;;;;;;;;;;;;11.96;79.35;96118.75;5030488;28;20107;-69
2022/10/03 02:50:47;;;;;;;;;;;;;;;12.08;78.53;96133.53;5048270;28;20096;-68
2022/10/03 02:53:38;;;;;;;;;;;;;;;12.06;78.76;96133.03;5050450;28;20013;-68
2022/10/03 02:56:24;;;;;;;;;;;;;;;12.01;78.79;96125.09;5015188;28;20022;-69
2022/10/03 02:59:27;;;;;;;;;;;;;;;11.99;78.69;96133.41;5037693;28;20070;-68
2022/10/03 03:02:11;;;;;;;;;;;;;;;12.12;77.86;96137.22;4969571;28;20137;-67
2022/10/03 03:04:36;;;;;;;;;;;;;;;12.16;77.76;96139.00;4968444;28;20018;-68
2022/10/03 03:07:20;;;;;;;;;;;;;;;12.17;77.17;96139.81;5015901;28;20014;-68
2022/10/03 03:09:51;;;;;;;;;;;;;;;12.19;76.47;96145.66;5050942;28;20067;-68
2022/10/03 03:12:35;;;;;;;;;;;;;;;12.23;76.33;96139.47;5050073;28;20017;-68
2022/10/03 03:15:20;;;;;;;;;;;;;;;12.19;76.66;96133.13;5049909;28;20017;-70
2022/10/03 03:18:05;;;;;;;;;;;;;;;12.18;75.83;96141.38;5050165;28;20072;-69
2022/10/03 03:20:46;;;;;;;;;;;;;;;12.00;77.03;96155.53;5049582;28;20367;-68
2022/10/03 03:23:26;;;;;;;;;;;;;;;12.16;76.74;96162.22;5050456;28;20028;-69
2022/10/03 03:26:03;;;;;;;;;;;;;;;12.18;75.74;96162.72;5049679;28;20586;-68
2022/10/03 03:28:36;;;;;;;;;;;;;;;12.31;75.57;96162.00;5049421;28;20021;-68
2022/10/03 03:31:10;;;;;;;;;;;;;;;12.34;75.37;96163.31;5050119;28;20056;-68
2022/10/03 03:33:54;;;;;;;;;;;;;;;12.35;74.90;96164.91;5050250;28;20091;-68
2022/10/03 03:36:28;;;;;;;;;;;;;;;12.25;75.38;96167.72;5049665;28;20064;-68
2022/10/03 03:39:02;;;;;;;;;;;;;;;12.07;74.71;96174.63;5049729;28;20017;-69
2022/10/03 03:41:41;;;;;;;;;;;;;;;12.05;75.21;96174.13;5049458;28;20018;-68
2022/10/03 03:44:18;;;;;;;;;;;;;;;12.09;75.63;96175.16;5048928;28;20014;-68
2022/10/03 03:46:52;;;;;;;;;;;;;;;12.02;74.86;96174.69;5049607;28;20123;-69
2022/10/03 03:49:26;;;;;;;;;;;;;;;11.99;74.90;96175.28;5049248;28;20028;-68
2022/10/03 03:52:00;;;;;;;;;;;;;;;11.78;75.36;96164.84;5048120;28;20017;-68
2022/10/03 03:54:34;;;;;;;;;;;;;;;11.62;76.23;96174.91;5049508;28;20017;-69
2022/10/03 03:57:13;;;;;;;;;;;;;;;11.90;75.93;96175.91;5050514;28;20045;-69
2022/10/03 03:59:58;;;;;;;;;;;;;;;11.81;75.79;96169.59;5049209;28;20416;-69
2022/10/03 04:02:43;;;;;;;;;;;;;;;11.77;75.73;96178.44;5048122;28;20112;-70
2022/10/03 04:05:23;;;;;;;;;;;;;;;11.66;75.04;96181.22;5048211;28;20017;-69
2022/10/03 04:07:49;;;;;;;;;;;;;;;11.84;75.93;96178.94;5049999;28;20090;-68
2022/10/03 04:10:20;;;;;;;;;;;;;;;11.90;75.35;96180.44;5049141;28;20359;-68
2022/10/03 04:12:54;;;;;;;;;;;;;;;11.92;74.85;96181.72;5049089;28;20032;-69
2022/10/03 04:15:20;;;;;;;;;;;;;;;11.90;74.85;96181.25;5048519;28;20017;-69
2022/10/03 04:21:00;;;;;;;;;;;;;;;11.88;74.55;96180.75;5049065;28;20508;-69
2022/10/03 04:23:34;;;;;;;;;;;;;;;11.83;74.81;96174.69;5049456;28;20028;-68
2022/10/03 04:26:15;;;;;;;;;;;;;;;11.78;74.48;96180.06;5048620;28;20362;-68
2022/10/03 04:28:46;;;;;;;;;;;;;;;11.59;74.46;96180.00;5049340;28;20024;-68
2022/10/03 04:31:18;;;;;;;;;;;;;;;11.69;74.54;96177.22;5047979;28;20071;-69
2022/10/03 04:33:46;;;;;;;;;;;;;;;11.57;75.68;96182.16;5048996;28;20063;-69
2022/10/03 04:36:34;;;;;;;;;;;;;;;11.74;75.44;96174.50;5049234;28;20010;-67
2022/10/03 04:38:59;;;;;;;;;;;;;;;11.77;74.56;96173.09;5048061;28;20140;-68
2022/10/03 04:41:43;;;;;;;;;;;;;;;11.81;74.42;96171.47;5048879;28;20175;-68
2022/10/03 04:44:25;;;;;;;;;;;;;;;11.61;73.40;96172.50;5049171;28;20021;-68
2022/10/03 04:46:53;;;;;;;;;;;;;;;11.41;74.52;96173.53;5048857;28;20103;-67
2022/10/03 04:49:40;;;;;;;;;;;;;;;11.44;75.20;96176.44;5048354;28;20509;-68
2022/10/03 04:52:16;;;;;;;;;;;;;;;11.61;75.73;96175.16;5048635;28;20013;-68
2022/10/03 04:54:59;;;;;;;;;;;;;;;11.73;74.96;96170.25;5048855;28;20151;-68
2022/10/03 04:57:27;;;;;;;;;;;;;;;11.75;74.34;96177.94;5048961;28;20044;-68
2022/10/03 05:00:01;;;;;;;;;;;;;;;11.75;74.07;96176.06;5049424;28;20013;-67
2022/10/03 05:02:34;;;;;;;;;;;;;;;11.75;73.99;96180.59;5047902;28;20013;-68
2022/10/03 05:05:22;;;;;;;;;;;;;;;11.70;74.33;96184.91;5052517;28;20108;-69
2022/10/03 05:08:06;;;;;;;;;;;;;;;11.74;74.12;96179.03;5052902;28;20032;-68
2022/10/03 05:10:43;;;;;;;;;;;;;;;11.71;74.04;96191.03;5052110;28;20072;-69
2022/10/03 05:13:15;;;;;;;;;;;;;;;11.74;74.26;96185.16;5052176;28;20005;-68
2022/10/03 05:15:48;;;;;;;;;;;;;;;11.74;74.17;96184.34;5037878;28;20020;-69
2022/10/03 05:18:27;;;;;;;;;;;;;;;11.76;74.43;96182.19;5052343;28;20044;-68
2022/10/03 05:20:59;;;;;;;;;;;;;;;11.73;74.09;96183.56;5052338;28;20457;-69
2022/10/03 05:23:41;;;;;;;;;;;;;;;11.81;74.18;96184.78;5052097;28;20009;-69
2022/10/03 05:26:27;;;;;;;;;;;;;;;11.79;74.64;96187.75;5051991;28;20100;-69
2022/10/03 05:29:08;;;;;;;;;;;;;;;11.81;74.41;96195.47;5052091;28;20017;-70
2022/10/03 05:31:33;;;;;;;;;;;;;;;11.84;74.39;96190.38;5052184;28;20024;-68
2022/10/03 05:34:00;;;;;;;;;;;;;;;11.94;74.24;96200.13;5052301;28;20017;-69
2022/10/03 05:36:28;;;;;;;;;;;;;;;12.02;74.35;96202.16;5052121;28;20116;-72
2022/10/03 05:39:11;;;;;;;;;;;;;;;12.11;74.45;96203.09;5051995;28;20013;-68
2022/10/03 05:41:39;;;;;;;;;;;;;;;12.19;74.66;96201.69;5050570;28;20021;-69
2022/10/03 05:44:11;;;;;;;;;;;;;;;12.25;74.43;96200.53;5051873;28;20013;-69
2022/10/03 05:46:55;;;;;;;;;;;;;;;12.34;74.28;96198.00;5067425;28;20021;-69
2022/10/03 05:49:30;;;;;;;;;;;;;;;12.41;73.88;96201.88;5051050;28;20013;-69
2022/10/03 05:51:58;;;;;;;;;;;;;;;12.53;74.06;96205.97;5037066;28;20530;-69
2022/10/03 05:54:42;;;;;;;;;;;;;;;12.59;74.06;96202.16;5051126;28;20473;-71
2022/10/03 05:57:07;;;;;;;;;;;;;;;12.69;73.56;96216.16;5051744;28;20013;-69
2022/10/03 05:59:47;;;;;;;;;;;;;;;12.83;73.52;96215.41;5052136;28;20024;-69
2022/10/03 06:02:16;;;;;;;;;;;;;;;12.96;73.73;96222.69;5046215;28;20104;-69
2022/10/03 06:04:52;;;;;;;;;;;;;;;13.14;73.46;96221.03;5051907;28;20413;-69
2022/10/03 06:07:17;;;;;;;;;;;;;;;13.06;73.39;96221.72;5051742;28;20025;-68
2022/10/03 06:09:56;;;;;;;;;;;;;;;13.05;73.24;96222.78;5051988;28;20381;-70
2022/10/03 06:13:00;;;;;;;;;;;;;;;13.01;73.41;96220.72;5050818;28;20009;-69
2022/10/03 06:15:48;;;;;;;;;;;;;;;12.97;73.36;96230.38;4987774;28;20495;-68
2022/10/03 06:18:25;;;;;;;;;;;;;;;12.96;73.61;96233.34;4990354;28;20096;-66
2022/10/03 06:21:07;;;;;;;;;;;;;;;13.00;73.68;96239.72;5031061;28;20482;-69
2022/10/03 06:23:35;;;;;;;;;;;;;;;13.10;73.69;96239.50;5051534;28;20087;-69
2022/10/03 06:26:19;;;;;;;;;;;;;;;13.21;73.58;96249.00;5049559;28;20359;-69
2022/10/03 06:28:57;;;;;;;;;;;;;;;13.37;73.96;96254.88;5051539;28;20120;-68
2022/10/03 06:31:40;;;;;;;;;;;;;;;13.53;74.17;96260.72;5048591;28;20589;-68
2022/10/03 06:34:24;;;;;;;;;;;;;;;13.85;73.95;96259.88;5043468;28;20042;-69
2022/10/03 06:37:10;;;;;;;;;;;;;;;13.99;73.75;96268.69;5031788;28;20014;-70
2022/10/03 06:39:53;;;;;;;;;;;;;;;14.16;73.48;96272.63;5041060;28;20018;-70
2022/10/03 06:42:27;;;;;;;;;;;;;;;14.25;73.55;96268.97;5040784;28;20196;-69
2022/10/03 06:45:08;;;;;;;;;;;;;;;14.46;73.58;96272.00;5049731;28;20018;-69
2022/10/03 06:47:36;;;;;;;;;;;;;;;14.73;73.55;96278.41;5045835;28;20017;-68
2022/10/03 06:50:25;;;;;;;;;;;;;;;14.95;73.69;96278.44;5048244;28;20014;-70
2022/10/03 06:53:01;;;;;;;;;;;;;;;15.21;73.51;96278.63;5046666;28;20066;-69
2022/10/03 06:55:46;;;;;;;;;;;;;;;15.36;72.76;96272.09;5050567;28;20025;-69
2022/10/03 06:58:26;;;;;;;;;;;;;;;15.46;73.13;96274.53;5045473;28;20014;-73
2022/10/03 07:01:00;;;;;;;;;;;;;;;15.58;72.95;96280.09;5058074;28;20066;-70
2022/10/03 07:03:41;;;;;;;;;;;;;;;15.72;71.67;96273.91;5049249;28;20043;-72
2022/10/03 07:06:26;;;;;;;;;;;;;;;15.43;69.29;96285.84;5046334;28;20460;-70
2022/10/03 07:09:03;;;;;;;;;;;;;;;15.15;70.43;96293.25;5050799;28;20551;-70
2022/10/03 07:11:29;;;;;;;;;;;;;;;15.56;72.43;96287.69;5049288;28;20032;-70
2022/10/03 07:14:00;;;;;;;;;;;;;;;15.70;72.03;96279.56;5041882;28;20018;-70
2022/10/03 07:16:34;;;;;;;;;;;;;;;15.75;72.20;96281.31;5036044;28;20025;-70
2022/10/03 07:19:09;;;;;;;;;;;;;;;16.02;72.37;96274.94;5048244;28;20107;-69
2022/10/03 07:21:43;;;;;;;;;;;;;;;16.26;72.39;96277.25;5049670;28;20020;-68
2022/10/03 07:24:35;;;;;;;;;;;;;;;15.50;69.34;96280.84;5050886;28;20013;-70
2022/10/03 07:27:03;;;;;;;;;;;;;;;15.59;71.32;96287.06;5034822;28;20144;-70
2022/10/03 07:29:38;;;;;;;;;;;;;;;15.56;69.29;96289.56;5049899;28;20120;-71
2022/10/03 07:32:06;;;;;;;;;;;;;;;14.57;70.43;96294.81;5050158;28;20047;-70
2022/10/03 07:34:40;;;;;;;;;;;;;;;14.60;71.88;96295.31;5049963;28;20564;-70
2022/10/03 07:40:41;;;;;;;;;;;;;;;15.21;72.75;96310.78;5051679;28;20547;-69
2022/10/03 07:43:07;;;;;;;;;;;;;;;14.49;71.71;96310.81;5049900;28;20108;-67
2022/10/03 07:45:36;;;;;;;;;;;;;;;14.53;71.78;96304.53;5049324;28;20100;-68
2022/10/03 07:48:12;;;;;;;;;;;;;;;15.54;73.18;96308.63;5050043;28;20028;-70
2022/10/03 07:50:49;;;;;;;;;;;;;;;16.14;72.61;96309.28;5050305;28;20084;-68
2022/10/03 07:53:33;;;;;;;;;;;;;;;16.22;71.50;96311.97;5050029;28;20017;-71
2022/10/03 07:56:01;;;;;;;;;;;;;;;16.33;72.06;96320.56;5050497;28;20017;-70
2022/10/03 07:58:45;;;;;;;;;;;;;;;16.34;70.30;96322.13;5048928;28;20474;-74
2022/10/03 08:01:20;;;;;;;;;;;;;;;15.63;68.75;96322.13;5048078;28;20013;-78
2022/10/03 08:04:00;;;;;;;;;;;;;;;16.27;71.75;96317.19;5047799;28;20098;-70
2022/10/03 08:06:36;;;;;;;;;;;;;;;16.26;69.87;96326.34;5061844;28;20560;-69
2022/10/03 08:09:20;;;;;;;;;;;;;;;15.12;70.34;96323.34;5044923;28;20053;-72
2022/10/03 08:12:04;;;;;;;;;;;;;;;16.00;71.79;96315.53;5031109;28;20381;-70
2022/10/03 08:14:41;;;;;;;;;;;;;;;16.43;71.89;96312.22;5049019;28;20482;-70
2022/10/03 08:17:25;;;;;;;;;;;;;;;16.58;71.22;96317.13;5049436;28;20028;-72
2022/10/03 08:19:56;;;;;;;;;;;;;;;16.63;70.99;96317.00;5049179;28;20104;-70
2022/10/03 08:22:35;;;;;;;;;;;;;;;16.84;71.26;96311.84;5049401;28;20066;-70
2022/10/03 08:25:19;;;;;;;;;;;;;;;16.87;70.07;96315.78;5047048;28;20055;-70
2022/10/03 08:27:58;;;;;;;;;;;;;;;16.93;71.42;96322.56;5048349;28;20120;-67
2022/10/03 08:30:33;;;;;;;;;;;;;;;16.67;69.86;96324.41;5045241;28;20023;-66
2022/10/03 08:33:15;;;;;;;;;;;;;;;14.69;71.41;96331.81;5048583;28;20048;-68
2022/10/03 08:35:55;;;;;;;;;;;;;;;14.35;74.81;96334.88;5047446;28;20078;-68
2022/10/03 08:38:31;;;;;;;;;;;;;;;13.95;74.03;96339.91;5047970;28;20096;-70
2022/10/03 08:41:00;;;;;;;;;;;;;;;13.45;74.60;96339.69;5064835;28;20497;-70
2022/10/03 08:43:41;;;;;;;;;;;;;;;13.47;75.54;96336.75;5050639;28;20379;-69
2022/10/03 08:46:17;;;;;;;;;;;;;;;13.46;75.76;96343.16;5049565;28;20481;-67
2022/10/03 08:48:53;;;;;;;;;;;;;;;13.32;75.28;96353.81;5047877;28;20071;-68
2022/10/03 08:51:38;;;;;;;;;;;;;;;13.99;76.02;96345.47;5044318;28;20013;-75
2022/10/03 08:54:13;;;;;;;;;;;;;;;14.04;75.14;96348.84;5061090;28;20063;-73
2022/10/03 08:56:56;;;;;;;;;;;;;;;12.94;74.58;96297.72;5040333;28;20024;-73
2022/10/03 08:59:38;;;;;;;;;;;;;;;13.37;75.34;96356.41;5043472;28;20427;-73
2022/10/03 09:02:22;;;;;;;;;;;;;;;13.32;76.40;96353.03;5047407;28;20018;-73
2022/10/03 09:04:50;;;;;;;;;;;;;;;14.16;73.88;96344.88;5048739;28;20013;-73
2022/10/03 09:07:34;;;;;;;;;;;;;;;14.32;74.30;96354.19;5047790;28;20005;-73
2022/10/03 09:10:19;;;;;;;;;;;;;;;14.19;74.47;96344.31;5048542;28;20021;-73
2022/10/03 09:13:03;;;;;;;;;;;;;;;14.74;74.63;96352.28;5048512;28;20017;-71
2022/10/03 09:15:40;;;;;;;;;;;;;;;14.54;72.44;96348.19;5046717;28;20123;-69
2022/10/03 09:18:33;;;;;;;;;;;;;;;14.77;72.27;96344.47;5048505;28;20018;-68
2022/10/03 09:21:05;;;;;;;;;;;;;;;14.60;70.32;96346.19;5048678;28;20022;-68
2022/10/03 09:23:49;;;;;;;;;;;;;;;15.24;72.13;96344.22;5047813;28;20018;-70
2022/10/03 09:26:23;;;;;;;;;;;;;;;14.94;71.54;96348.38;5047843;28;20024;-73
2022/10/03 09:28:59;;;;;;;;;;;;;;;15.67;72.35;96347.25;5046144;28;20086;-72
2022/10/03 09:31:27;;;;;;;;;;;;;;;15.25;71.34;96345.81;5046355;28;20477;-69
2022/10/03 09:34:01;;;;;;;;;;;;;;;15.00;71.30;96341.84;5049449;28;20014;-69
2022/10/03 09:36:46;;;;;;;;;;;;;;;15.13;72.20;96357.06;5065088;28;20542;-69
2022/10/03 09:39:30;;;;;;;;;;;;;;;15.29;69.52;96352.16;5006209;28;20033;-69
2022/10/03 09:42:13;;;;;;;;;;;;;;;15.73;70.46;96342.53;5072592;22;20021;-68
2022/10/03 09:44:39;;;;;;;;;;;;;;;16.90;69.52;96339.34;5067860;28;20393;-68
2022/10/03 09:47:22;;;;;;;;;;;;;;;17.58;67.89;96342.31;5067618;28;20024;-68
2022/10/03 09:50:06;;;;;;;;;;;;;;;16.32;66.20;96345.78;5059724;28;20026;-67
2022/10/03 09:52:41;;;;;;;;;;;;;;;15.73;68.77;96346.00;5050051;28;20028;-68
2022/10/03 09:55:21;;;;;;;;;;;;;;;15.01;69.28;96351.47;5053057;28;20015;-67
2022/10/03 09:57:47;;;;;;;;;;;;;;;15.61;69.09;96343.09;5052827;28;20009;-66
2022/10/03 10:00:18;;;;;;;;;;;;;;;15.86;68.42;96347.81;5050274;28;20113;-67
2022/10/03 10:02:43;;;;;;;;;;;;;;;15.65;69.37;96344.06;5051439;28;20014;-66
2022/10/03 10:05:24;;;;;;;;;;;;;;;16.35;68.87;96332.56;5052787;28;20108;-70
2022/10/03 10:07:52;;;;;;;;;;;;;;;16.50;69.55;96325.97;5056025;28;20021;-71
2022/10/03 10:10:20;;;;;;;;;;;;;;;16.77;68.67;96329.50;5052759;28;20126;-70
2022/10/03 10:12:57;;;;;;;;;;;;;;;16.75;68.08;96327.16;5052022;28;20025;-70
2022/10/03 10:15:31;;;;;;;;;;;;;;;16.80;67.27;96323.53;5051461;28;20017;-75
2022/10/03 10:18:14;;;;;;;;;;;;;;;16.18;67.03;96329.81;5050546;28;20025;-71
2022/10/03 10:20:46;;;;;;;;;;;;;;;15.56;66.88;96327.91;5049354;28;20109;-68
2022/10/03 10:23:29;;;;;;;;;;;;;;;15.77;68.05;96322.84;5056636;28;20382;-68
2022/10/03 10:26:08;;;;;;;;;;;;;;;15.41;67.49;96328.28;5085777;28;20497;-66
2022/10/03 10:28:52;;;;;;;;;;;;;;;14.50;70.68;96321.22;5071258;28;20017;-66
2022/10/03 10:31:36;;;;;;;;;;;;;;;16.21;69.96;96325.72;5049286;28;20075;-66
2022/10/03 10:34:01;;;;;;;;;;;;;;;15.54;67.68;96316.69;5070743;28;20013;-66
2022/10/03 10:36:45;;;;;;;;;;;;;;;14.76;66.85;96324.13;5052172;28;20013;-67
2022/10/03 10:39:23;;;;;;;;;;;;;;;14.28;68.92;96327.25;5051083;28;20116;-67
2022/10/03 10:42:14;;;;;;;;;;;;;;;14.23;69.76;96331.91;5062854;28;20017;-67
2022/10/03 10:44:58;;;;;;;;;;;;;;;14.49;69.75;96330.34;5048688;28;20096;-67
2022/10/03 10:47:42;;;;;;;;;;;;;;;14.35;67.88;96326.84;5061187;28;20012;-66
2022/10/03 10:50:37;;;;;;;;;;;;;;;14.90;69.35;96320.63;5058611;28;20013;-67
2022/10/03 10:53:08;;;;;;;;;;;;;;;16.17;69.33;96317.47;5059694;28;20041;-68
2022/10/03 10:55:53;;;;;;;;;;;;;;;16.20;64.46;96311.50;5061653;28;20791;-67
2022/10/03 10:58:21;;;;;;;;;;;;;;;14.77;68.09;96327.59;5061295;28;20044;-67
2022/10/03 11:01:01;;;;;;;;;;;;;;;14.85;67.37;96321.53;5067340;28;20013;-67
2022/10/03 11:03:36;;;;;;;;;;;;;;;14.61;66.69;96321.78;5071860;28;20019;-67
2022/10/03 11:06:04;;;;;;;;;;;;;;;14.07;67.66;96314.56;5068506;28;20013;-67
2022/10/03 11:08:51;;;;;;;;;;;;;;;13.94;67.40;96310.78;5058723;28;20052;-68
2022/10/03 11:11:19;;;;;;;;;;;;;;;13.91;65.93;96320.19;5051904;28;20112;-67
2022/10/03 11:13:54;;;;;;;;;;;;;;;14.49;66.09;96319.63;5050662;28;20025;-67
2022/10/03 11:16:25;;;;;;;;;;;;;;;14.52;62.36;96318.22;5056062;28;20013;-67
2022/10/03 11:19:09;;;;;;;;;;;;;;;14.21;64.37;96315.34;5069909;28;20491;-67
2022/10/03 11:21:34;;;;;;;;;;;;;;;14.07;68.68;96314.56;5054143;28;20518;-67
2022/10/03 11:24:12;;;;;;;;;;;;;;;14.45;63.88;96305.22;5070501;28;20018;-72
2022/10/03 11:26:53;;;;;;;;;;;;;;;14.94;67.80;96303.63;5065145;28;21020;-71
2022/10/03 11:29:30;;;;;;;;;;;;;;;15.02;62.84;96307.50;5048462;28;20075;-72
2022/10/03 11:31:58;;;;;;;;;;;;;;;15.39;62.14;96295.59;5052659;28;20020;-68
2022/10/03 11:34:38;;;;;;;;;;;;;;;14.64;64.53;96299.78;5030912;28;20017;-68
2022/10/03 11:37:07;;;;;;;;;;;;;;;15.42;67.47;96297.69;5061162;28;20018;-71
2022/10/03 11:39:51;;;;;;;;;;;;;;;14.46;61.82;96295.31;5047784;28;20024;-67
2022/10/03 11:42:36;;;;;;;;;;;;;;;15.38;60.47;96296.72;5048896;28;20075;-68
2022/10/03 11:45:03;;;;;;;;;;;;;;;15.42;63.34;96289.66;5048854;28;20010;-69
2022/10/03 11:47:47;;;;;;;;;;;;;;;14.98;60.35;96295.78;5047432;28;20014;-68
2022/10/03 11:50:15;;;;;;;;;;;;;;;14.68;62.17;96299.94;5047552;28;20140;-68
2022/10/03 11:52:59;;;;;;;;;;;;;;;15.58;63.63;96290.84;5046735;28;20063;-69
2022/10/03 11:55:33;;;;;;;;;;;;;;;16.23;58.22;96294.00;5049426;28;20009;-68
2022/10/03 11:58:17;;;;;;;;;;;;;;;16.68;54.62;96288.38;5049005;28;20127;-68
2022/10/03 12:00:45;;;;;;;;;;;;;;;16.97;54.07;96290.47;5050014;28;20009;-68
2022/10/03 12:03:28;;;;;;;;;;;;;;;16.15;57.01;96292.06;5048230;28;20024;-68
2022/10/03 12:09:04;;;;;;;;;;;;;;;15.66;57.92;96285.84;5048134;28;20064;-68
2022/10/03 12:11:37;;;;;;;;;;;;;;;16.24;56.07;96282.16;5048544;28;20515;-69
2022/10/03 12:14:02;;;;;;;;;;;;;;;15.68;56.11;96287.13;5047700;28;20021;-66
2022/10/03 12:16:29;;;;;;;;;;;;;;;16.54;59.02;96283.16;5050483;28;20036;-68
2022/10/03 12:18:57;;;;;;;;;;;;;;;16.21;57.08;96277.38;5048222;28;20068;-67
2022/10/03 12:21:28;;;;;;;;;;;;;;;15.64;53.78;96282.69;5049926;28;20386;-68
2022/10/03 12:24:02;;;;;;;;;;;;;;;15.76;54.74;96280.22;5050325;28;20236;-69
2022/10/03 12:26:36;;;;;;;;;;;;;;;15.99;52.92;96268.31;5049284;28;20052;-69
2022/10/03 12:29:03;;;;;;;;;;;;;;;16.01;53.25;96271.47;5048591;28;20071;-69
2022/10/03 12:31:34;;;;;;;;;;;;;;;16.61;55.92;96264.66;5049896;28;20318;-66
2022/10/03 12:34:03;;;;;;;;;;;;;;;16.40;54.81;96253.75;5048566;28;20009;-70
2022/10/03 12:36:40;;;;;;;;;;;;;;;16.91;55.08;96257.59;5048604;28;20022;-67
2022/10/03 12:39:24;;;;;;;;;;;;;;;17.17;51.24;96251.41;5049473;28;20048;-67
2022/10/03 12:42:08;;;;;;;;;;;;;;;17.97;50.16;96257.06;5049019;28;20497;-66
2022/10/03 12:44:46;;;;;;;;;;;;;;;18.24;49.01;96256.59;5049237;28;20396;-67
2022/10/03 12:47:14;;;;;;;;;;;;;;;18.77;47.68;96257.09;5048701;28;20053;-68
2022/10/03 12:49:52;;;;;;;;;;;;;;;16.43;49.06;96136.84;5048129;28;20032;-67
2022/10/03 12:52:22;;;;;;;;;;;;;;;17.48;52.22;96248.50;5047578;28;20021;-68
2022/10/03 12:54:51;;;;;;;;;;;;;;;18.24;53.92;96242.34;5048372;28;20010;-67
2022/10/03 12:57:37;;;;;;;;;;;;;;;18.35;51.94;96244.34;5049934;28;20014;-67
2022/10/03 13:00:19;;;;;;;;;;;;;;;17.70;47.93;96242.88;5049253;28;20017;-67
2022/10/03 13:02:54;;;;;;;;;;;;;;;16.53;48.48;96250.13;5049774;28;20016;-67
2022/10/03 13:05:22;;;;;;;;;;;;;;;16.70;48.16;96241.28;5064313;28;20507;-67
2022/10/03 13:08:01;;;;;;;;;;;;;;;16.42;48.17;96248.84;5049592;28;20054;-66
2022/10/03 13:10:26;;;;;;;;;;;;;;;16.82;47.35;96243.38;5049534;28;20056;-67
2022/10/03 13:12:52;;;;;;;;;;;;;;;17.35;45.85;96240.31;5049543;28;20045;-67
2022/10/03 13:15:18;;;;;;;;;;;;;;;18.21;43.87;96238.41;5049732;28;20014;-67
2022/10/03 13:17:50;;;;;;;;;;;;;;;18.32;42.47;96236.91;5048673;28;20021;-67
2022/10/03 13:20:24;;;;;;;;;;;;;;;19.17;42.26;96241.19;5049004;28;20068;-67
2022/10/03 13:23:06;;;;;;;;;;;;;;;19.64;42.66;96238.97;5049323;28;20036;-66
2022/10/03 13:25:40;;;;;;;;;;;;;;;19.12;42.53;96238.72;5053267;28;20380;-67
2022/10/03 13:28:05;;;;;;;;;;;;;;;17.15;47.92;96247.16;5052643;28;20063;-67
2022/10/03 13:30:38;;;;;;;;;;;;;;;18.27;48.49;96236.31;5050493;28;20017;-67
2022/10/03 13:33:14;;;;;;;;;;;;;;;18.18;49.11;96237.16;5053097;28;20005;-67
2022/10/03 13:35:58;;;;;;;;;;;;;;;16.66;52.24;96252.97;5053387;28;20013;-69
2022/10/03 13:38:23;;;;;;;;;;;;;;;16.02;54.33;96248.94;5050360;28;20101;-68
2022/10/03 13:41:07;;;;;;;;;;;;;;;15.61;55.67;96249.22;5053064;28;20442;-67
2022/10/03 13:43:36;;;;;;;;;;;;;;;16.21;56.03;96240.59;5053022;28;20063;-67
2022/10/03 13:46:23;;;;;;;;;;;;;;;16.20;55.25;96243.59;5052895;28;20057;-68
2022/10/03 13:48:56;;;;;;;;;;;;;;;16.57;59.12;96236.84;5052109;28;20023;-68